sensor_id;sensor_type;location;lat;lon;timestamp;temperature;humidity
16158;DHT22;8184;60.256;18.694;2022-09-03T00:00:51;8.50;99.90
16158;DHT22;8184;60.256;18.694;2022-09-03T00:03:21;8.40;99.90
16158;DHT22;8184;60.256;18.694;2022-09-03T00:05:55;8.30;99.90
16158;DHT22;8184;60.256;18.694;2022-09-03T00:08:29;8.30;99.90
16158;DHT22;8184;60.256;18.694;2022-09-03T00:11:00;8.20;99.90
16158;DHT22;8184;60.256;18.694;2022-09-03T00:13:35;8.30;99.90
16158;DHT22;8184;60.256;18.694;2022-09-03T00:16:06;8.30;99.90
16158;DHT22;8184;60.256;18.694;2022-09-03T00:18:40;8.30;99.90
16158;DHT22;8184;60.256;18.694;2022-09-03T00:21:11;8.20;99.90
16158;DHT22;8184;60.256;18.694;2022-09-03T00:23:41;8.20;99.90
16158;DHT22;8184;60.256;18.694;2022-09-03T00:26:15;8.30;99.90
16158;DHT22;8184;60.256;18.694;2022-09-03T00:28:44;8.30;99.90
16158;DHT22;8184;60.256;18.694;2022-09-03T00:31:15;8.30;99.90
16158;DHT22;8184;60.256;18.694;2022-09-03T00:33:45;8.20;99.90
16158;DHT22;8184;60.256;18.694;2022-09-03T00:36:17;8.10;99.90
16158;DHT22;8184;60.256;18.694;2022-09-03T00:38:45;8.30;99.90
16158;DHT22;8184;60.256;18.694;2022-09-03T00:41:16;8.30;99.90
16158;DHT22;8184;60.256;18.694;2022-09-03T00:43:56;8.30;99.90
16158;DHT22;8184;60.256;18.694;2022-09-03T00:46:29;8.30;99.90
16158;DHT22;8184;60.256;18.694;2022-09-03T00:51:57;8.30;99.90
16158;DHT22;8184;60.256;18.694;2022-09-03T00:54:31;8.30;99.90
16158;DHT22;8184;60.256;18.694;2022-09-03T00:57:12;8.30;99.90
16158;DHT22;8184;60.256;18.694;2022-09-03T00:59:44;8.30;99.90
16158;DHT22;8184;60.256;18.694;2022-09-03T01:02:17;8.20;99.90
16158;DHT22;8184;60.256;18.694;2022-09-03T01:04:51;8.20;99.90
16158;DHT22;8184;60.256;18.694;2022-09-03T01:07:29;8.00;99.90
16158;DHT22;8184;60.256;18.694;2022-09-03T01:10:04;8.00;99.90
16158;DHT22;8184;60.256;18.694;2022-09-03T01:12:36;8.00;99.90
16158;DHT22;8184;60.256;18.694;2022-09-03T01:15:08;8.00;99.90
16158;DHT22;8184;60.256;18.694;2022-09-03T01:23:21;7.80;99.90
16158;DHT22;8184;60.256;18.694;2022-09-03T01:25:51;7.70;99.90
16158;DHT22;8184;60.256;18.694;2022-09-03T01:28:31;7.60;99.90
16158;DHT22;8184;60.256;18.694;2022-09-03T01:31:07;7.70;99.90
16158;DHT22;8184;60.256;18.694;2022-09-03T01:33:40;7.70;99.90
16158;DHT22;8184;60.256;18.694;2022-09-03T01:36:15;7.80;99.90
16158;DHT22;8184;60.256;18.694;2022-09-03T01:38:46;7.70;99.90
16158;DHT22;8184;60.256;18.694;2022-09-03T01:41:19;7.70;99.90
16158;DHT22;8184;60.256;18.694;2022-09-03T01:44:10;7.60;99.90
16158;DHT22;8184;60.256;18.694;2022-09-03T01:46:42;7.60;99.90
16158;DHT22;8184;60.256;18.694;2022-09-03T01:49:14;7.60;99.90
16158;DHT22;8184;60.256;18.694;2022-09-03T01:51:49;7.60;99.90
16158;DHT22;8184;60.256;18.694;2022-09-03T01:54:26;7.60;99.90
16158;DHT22;8184;60.256;18.694;2022-09-03T01:57:13;7.50;99.90
16158;DHT22;8184;60.256;18.694;2022-09-03T02:00:05;7.40;99.90
16158;DHT22;8184;60.256;18.694;2022-09-03T02:02:33;7.30;99.90
16158;DHT22;8184;60.256;18.694;2022-09-03T02:05:03;7.30;99.90
16158;DHT22;8184;60.256;18.694;2022-09-03T02:07:38;7.40;99.90
16158;DHT22;8184;60.256;18.694;2022-09-03T02:10:07;7.30;99.90
16158;DHT22;8184;60.256;18.694;2022-09-03T02:12:36;7.30;99.90
16158;DHT22;8184;60.256;18.694;2022-09-03T02:15:11;7.30;99.90
16158;DHT22;8184;60.256;18.694;2022-09-03T02:17:39;7.20;99.90
16158;DHT22;8184;60.256;18.694;2022-09-03T02:20:09;7.20;99.90
16158;DHT22;8184;60.256;18.694;2022-09-03T02:22:40;7.10;99.90
16158;DHT22;8184;60.256;18.694;2022-09-03T02:25:09;7.20;99.90
16158;DHT22;8184;60.256;18.694;2022-09-03T02:27:37;7.10;99.90
16158;DHT22;8184;60.256;18.694;2022-09-03T02:30:06;7.10;99.90
16158;DHT22;8184;60.256;18.694;2022-09-03T02:32:35;7.20;99.90
16158;DHT22;8184;60.256;18.694;2022-09-03T02:35:04;7.10;99.90
16158;DHT22;8184;60.256;18.694;2022-09-03T02:37:32;7.10;99.90
16158;DHT22;8184;60.256;18.694;2022-09-03T02:40:00;7.00;99.90
16158;DHT22;8184;60.256;18.694;2022-09-03T02:42:32;7.10;99.90
16158;DHT22;8184;60.256;18.694;2022-09-03T02:45:01;7.10;99.90
16158;DHT22;8184;60.256;18.694;2022-09-03T02:47:31;7.10;99.90
16158;DHT22;8184;60.256;18.694;2022-09-03T02:50:01;7.20;99.90
16158;DHT22;8184;60.256;18.694;2022-09-03T02:52:29;7.10;99.90
16158;DHT22;8184;60.256;18.694;2022-09-03T02:54:57;7.00;99.90
16158;DHT22;8184;60.256;18.694;2022-09-03T02:57:25;7.10;99.90
16158;DHT22;8184;60.256;18.694;2022-09-03T02:59:53;7.10;99.90
16158;DHT22;8184;60.256;18.694;2022-09-03T03:02:21;7.20;99.90
16158;DHT22;8184;60.256;18.694;2022-09-03T03:04:49;7.20;99.90
16158;DHT22;8184;60.256;18.694;2022-09-03T03:07:19;7.20;99.90
16158;DHT22;8184;60.256;18.694;2022-09-03T03:09:46;7.10;99.90
16158;DHT22;8184;60.256;18.694;2022-09-03T03:12:15;7.10;99.90
16158;DHT22;8184;60.256;18.694;2022-09-03T03:14:43;7.20;99.90
16158;DHT22;8184;60.256;18.694;2022-09-03T03:17:11;7.30;99.90
16158;DHT22;8184;60.256;18.694;2022-09-03T03:19:39;7.30;99.90
16158;DHT22;8184;60.256;18.694;2022-09-03T03:22:07;7.40;99.90
16158;DHT22;8184;60.256;18.694;2022-09-03T03:24:37;7.30;99.90
16158;DHT22;8184;60.256;18.694;2022-09-03T03:27:05;7.40;99.90
16158;DHT22;8184;60.256;18.694;2022-09-03T03:29:36;7.40;99.90
16158;DHT22;8184;60.256;18.694;2022-09-03T03:32:05;7.50;99.90
16158;DHT22;8184;60.256;18.694;2022-09-03T03:34:35;7.60;99.90
16158;DHT22;8184;60.256;18.694;2022-09-03T03:37:05;7.50;99.90
16158;DHT22;8184;60.256;18.694;2022-09-03T03:39:33;7.40;99.90
16158;DHT22;8184;60.256;18.694;2022-09-03T03:42:03;7.40;99.90
16158;DHT22;8184;60.256;18.694;2022-09-03T03:44:31;7.30;99.90
16158;DHT22;8184;60.256;18.694;2022-09-03T03:46:59;7.40;99.90
16158;DHT22;8184;60.256;18.694;2022-09-03T03:49:27;7.40;99.90
16158;DHT22;8184;60.256;18.694;2022-09-03T03:51:55;7.40;99.90
16158;DHT22;8184;60.256;18.694;2022-09-03T03:54:23;7.30;99.90
16158;DHT22;8184;60.256;18.694;2022-09-03T03:56:52;7.40;99.90
16158;DHT22;8184;60.256;18.694;2022-09-03T03:59:22;7.40;99.90
16158;DHT22;8184;60.256;18.694;2022-09-03T04:01:53;7.50;99.90
16158;DHT22;8184;60.256;18.694;2022-09-03T04:04:21;7.50;99.90
16158;DHT22;8184;60.256;18.694;2022-09-03T04:06:49;7.60;99.90
16158;DHT22;8184;60.256;18.694;2022-09-03T04:09:17;7.60;99.90
16158;DHT22;8184;60.256;18.694;2022-09-03T04:11:46;7.50;99.90
16158;DHT22;8184;60.256;18.694;2022-09-03T04:14:14;7.60;99.90
16158;DHT22;8184;60.256;18.694;2022-09-03T04:16:45;7.50;99.90
16158;DHT22;8184;60.256;18.694;2022-09-03T04:19:13;7.50;99.90
16158;DHT22;8184;60.256;18.694;2022-09-03T04:21:41;7.50;99.90
16158;DHT22;8184;60.256;18.694;2022-09-03T04:24:09;7.60;99.90
16158;DHT22;8184;60.256;18.694;2022-09-03T04:26:38;7.60;99.90
16158;DHT22;8184;60.256;18.694;2022-09-03T04:29:07;7.70;99.90
16158;DHT22;8184;60.256;18.694;2022-09-03T04:31:37;7.70;99.90
16158;DHT22;8184;60.256;18.694;2022-09-03T04:34:27;7.60;99.90
16158;DHT22;8184;60.256;18.694;2022-09-03T04:36:55;7.60;99.90
16158;DHT22;8184;60.256;18.694;2022-09-03T04:39:24;7.70;99.90
16158;DHT22;8184;60.256;18.694;2022-09-03T04:41:53;7.70;99.90
16158;DHT22;8184;60.256;18.694;2022-09-03T04:44:21;7.70;99.90
16158;DHT22;8184;60.256;18.694;2022-09-03T04:46:49;7.60;99.90
16158;DHT22;8184;60.256;18.694;2022-09-03T04:49:19;7.70;99.90
16158;DHT22;8184;60.256;18.694;2022-09-03T04:51:48;7.60;99.90
16158;DHT22;8184;60.256;18.694;2022-09-03T04:54:16;7.60;99.90
16158;DHT22;8184;60.256;18.694;2022-09-03T04:56:44;7.60;99.90
16158;DHT22;8184;60.256;18.694;2022-09-03T04:59:16;7.60;99.90
16158;DHT22;8184;60.256;18.694;2022-09-03T05:01:44;7.50;99.90
16158;DHT22;8184;60.256;18.694;2022-09-03T05:04:12;7.60;99.90
16158;DHT22;8184;60.256;18.694;2022-09-03T05:06:43;7.60;99.90
16158;DHT22;8184;60.256;18.694;2022-09-03T05:09:14;7.40;99.90
16158;DHT22;8184;60.256;18.694;2022-09-03T05:11:42;7.30;99.90
16158;DHT22;8184;60.256;18.694;2022-09-03T05:14:10;7.30;99.90
16158;DHT22;8184;60.256;18.694;2022-09-03T05:16:38;7.40;99.90
16158;DHT22;8184;60.256;18.694;2022-09-03T05:19:07;7.30;99.90
16158;DHT22;8184;60.256;18.694;2022-09-03T05:21:36;7.20;99.90
16158;DHT22;8184;60.256;18.694;2022-09-03T05:24:04;7.50;99.90
16158;DHT22;8184;60.256;18.694;2022-09-03T05:26:36;7.60;99.90
16158;DHT22;8184;60.256;18.694;2022-09-03T05:29:04;7.60;99.90
16158;DHT22;8184;60.256;18.694;2022-09-03T05:31:34;7.60;99.90
16158;DHT22;8184;60.256;18.694;2022-09-03T05:34:05;7.70;99.90
16158;DHT22;8184;60.256;18.694;2022-09-03T05:36:33;7.70;99.90
16158;DHT22;8184;60.256;18.694;2022-09-03T05:39:05;7.70;99.90
16158;DHT22;8184;60.256;18.694;2022-09-03T05:41:34;7.80;99.90
16158;DHT22;8184;60.256;18.694;2022-09-03T05:44:02;7.80;99.90
16158;DHT22;8184;60.256;18.694;2022-09-03T05:46:32;8.00;99.90
16158;DHT22;8184;60.256;18.694;2022-09-03T05:49:03;7.90;99.90
16158;DHT22;8184;60.256;18.694;2022-09-03T05:51:32;8.10;99.90
16158;DHT22;8184;60.256;18.694;2022-09-03T05:54:01;8.20;99.90
16158;DHT22;8184;60.256;18.694;2022-09-03T05:56:30;8.30;99.90
16158;DHT22;8184;60.256;18.694;2022-09-03T05:59:00;8.60;99.90
16158;DHT22;8184;60.256;18.694;2022-09-03T06:01:31;8.70;99.90
16158;DHT22;8184;60.256;18.694;2022-09-03T06:04:00;8.80;99.90
16158;DHT22;8184;60.256;18.694;2022-09-03T06:06:30;8.80;99.90
16158;DHT22;8184;60.256;18.694;2022-09-03T06:08:59;8.90;99.90
16158;DHT22;8184;60.256;18.694;2022-09-03T06:11:28;9.10;99.90
16158;DHT22;8184;60.256;18.694;2022-09-03T06:13:56;9.30;99.90
16158;DHT22;8184;60.256;18.694;2022-09-03T06:16:27;9.40;99.90
16158;DHT22;8184;60.256;18.694;2022-09-03T06:18:57;9.50;99.90
16158;DHT22;8184;60.256;18.694;2022-09-03T06:21:26;9.80;99.90
16158;DHT22;8184;60.256;18.694;2022-09-03T06:23:55;10.20;99.90
16158;DHT22;8184;60.256;18.694;2022-09-03T06:26:25;10.70;99.90
16158;DHT22;8184;60.256;18.694;2022-09-03T06:28:55;11.20;99.90
16158;DHT22;8184;60.256;18.694;2022-09-03T06:31:23;11.20;99.90
16158;DHT22;8184;60.256;18.694;2022-09-03T06:33:53;11.10;99.90
16158;DHT22;8184;60.256;18.694;2022-09-03T06:36:27;11.00;99.90
16158;DHT22;8184;60.256;18.694;2022-09-03T06:38:56;10.90;99.90
16158;DHT22;8184;60.256;18.694;2022-09-03T06:41:24;10.80;99.90
16158;DHT22;8184;60.256;18.694;2022-09-03T06:43:53;11.00;99.90
16158;DHT22;8184;60.256;18.694;2022-09-03T06:46:22;11.40;99.90
16158;DHT22;8184;60.256;18.694;2022-09-03T06:48:50;11.80;99.90
16158;DHT22;8184;60.256;18.694;2022-09-03T06:51:21;11.80;99.90
16158;DHT22;8184;60.256;18.694;2022-09-03T06:53:50;11.90;99.90
16158;DHT22;8184;60.256;18.694;2022-09-03T06:56:19;12.00;99.90
16158;DHT22;8184;60.256;18.694;2022-09-03T06:58:53;11.80;99.90
16158;DHT22;8184;60.256;18.694;2022-09-03T07:01:22;11.70;99.90
16158;DHT22;8184;60.256;18.694;2022-09-03T07:03:54;11.40;99.90
16158;DHT22;8184;60.256;18.694;2022-09-03T07:06:24;11.60;99.90
16158;DHT22;8184;60.256;18.694;2022-09-03T07:08:53;11.70;99.90
16158;DHT22;8184;60.256;18.694;2022-09-03T07:11:25;11.60;99.90
16158;DHT22;8184;60.256;18.694;2022-09-03T07:13:55;11.90;99.90
16158;DHT22;8184;60.256;18.694;2022-09-03T07:16:23;11.60;99.90
16158;DHT22;8184;60.256;18.694;2022-09-03T07:18:53;11.70;99.90
16158;DHT22;8184;60.256;18.694;2022-09-03T07:21:26;11.80;99.90
16158;DHT22;8184;60.256;18.694;2022-09-03T07:23:54;12.00;99.90
16158;DHT22;8184;60.256;18.694;2022-09-03T07:26:24;11.90;99.90
16158;DHT22;8184;60.256;18.694;2022-09-03T07:28:56;11.80;99.90
16158;DHT22;8184;60.256;18.694;2022-09-03T07:31:28;11.80;99.90
16158;DHT22;8184;60.256;18.694;2022-09-03T07:33:56;12.20;99.90
16158;DHT22;8184;60.256;18.694;2022-09-03T07:36:28;12.40;99.90
16158;DHT22;8184;60.256;18.694;2022-09-03T07:39:01;12.40;99.90
16158;DHT22;8184;60.256;18.694;2022-09-03T07:41:30;12.30;99.90
16158;DHT22;8184;60.256;18.694;2022-09-03T07:43:59;12.50;99.90
16158;DHT22;8184;60.256;18.694;2022-09-03T07:46:32;12.80;99.90
16158;DHT22;8184;60.256;18.694;2022-09-03T07:49:01;13.10;99.90
16158;DHT22;8184;60.256;18.694;2022-09-03T07:51:32;13.30;99.90
16158;DHT22;8184;60.256;18.694;2022-09-03T07:54:02;13.50;99.90
16158;DHT22;8184;60.256;18.694;2022-09-03T07:56:32;13.10;99.90
16158;DHT22;8184;60.256;18.694;2022-09-03T07:59:01;13.50;99.90
16158;DHT22;8184;60.256;18.694;2022-09-03T08:01:30;13.50;99.90
16158;DHT22;8184;60.256;18.694;2022-09-03T08:03:59;13.60;99.90
16158;DHT22;8184;60.256;18.694;2022-09-03T08:06:31;13.20;99.90
16158;DHT22;8184;60.256;18.694;2022-09-03T08:09:00;13.30;99.90
16158;DHT22;8184;60.256;18.694;2022-09-03T08:11:31;13.30;99.90
16158;DHT22;8184;60.256;18.694;2022-09-03T08:14:01;13.50;99.90
16158;DHT22;8184;60.256;18.694;2022-09-03T08:16:33;13.50;99.90
16158;DHT22;8184;60.256;18.694;2022-09-03T08:19:01;13.70;99.90
16158;DHT22;8184;60.256;18.694;2022-09-03T08:21:31;13.70;99.90
16158;DHT22;8184;60.256;18.694;2022-09-03T08:23:59;13.80;99.90
16158;DHT22;8184;60.256;18.694;2022-09-03T08:26:29;14.10;99.90
16158;DHT22;8184;60.256;18.694;2022-09-03T08:28:58;14.20;99.90
16158;DHT22;8184;60.256;18.694;2022-09-03T08:31:26;14.30;99.90
16158;DHT22;8184;60.256;18.694;2022-09-03T08:33:55;14.40;99.90
16158;DHT22;8184;60.256;18.694;2022-09-03T08:36:25;14.30;99.90
16158;DHT22;8184;60.256;18.694;2022-09-03T08:38:55;14.40;99.90
16158;DHT22;8184;60.256;18.694;2022-09-03T08:41:26;14.50;99.90
16158;DHT22;8184;60.256;18.694;2022-09-03T08:44:03;14.50;99.90
16158;DHT22;8184;60.256;18.694;2022-09-03T08:46:38;14.50;99.90
16158;DHT22;8184;60.256;18.694;2022-09-03T08:49:08;14.40;99.90
16158;DHT22;8184;60.256;18.694;2022-09-03T08:51:38;14.40;99.90
16158;DHT22;8184;60.256;18.694;2022-09-03T08:54:08;14.50;99.90
16158;DHT22;8184;60.256;18.694;2022-09-03T08:56:37;14.40;99.90
16158;DHT22;8184;60.256;18.694;2022-09-03T08:59:06;14.20;99.90
16158;DHT22;8184;60.256;18.694;2022-09-03T09:01:40;14.10;99.90
16158;DHT22;8184;60.256;18.694;2022-09-03T09:04:13;13.90;99.90
16158;DHT22;8184;60.256;18.694;2022-09-03T09:06:45;14.20;99.90
16158;DHT22;8184;60.256;18.694;2022-09-03T09:09:21;14.10;99.90
16158;DHT22;8184;60.256;18.694;2022-09-03T09:11:55;14.10;99.90
16158;DHT22;8184;60.256;18.694;2022-09-03T09:14:25;14.30;99.90
16158;DHT22;8184;60.256;18.694;2022-09-03T09:16:56;14.20;99.90
16158;DHT22;8184;60.256;18.694;2022-09-03T09:19:29;13.90;99.90
16158;DHT22;8184;60.256;18.694;2022-09-03T09:21:59;13.10;99.90
16158;DHT22;8184;60.256;18.694;2022-09-03T09:24:32;12.40;99.90
16158;DHT22;8184;60.256;18.694;2022-09-03T09:27:03;12.60;99.90
16158;DHT22;8184;60.256;18.694;2022-09-03T09:29:33;12.80;99.90
16158;DHT22;8184;60.256;18.694;2022-09-03T09:32:06;12.70;99.90
16158;DHT22;8184;60.256;18.694;2022-09-03T09:34:36;12.90;99.90
16158;DHT22;8184;60.256;18.694;2022-09-03T09:37:05;13.00;99.90
16158;DHT22;8184;60.256;18.694;2022-09-03T09:39:36;13.10;99.90
16158;DHT22;8184;60.256;18.694;2022-09-03T09:42:06;12.80;99.90
16158;DHT22;8184;60.256;18.694;2022-09-03T09:44:35;12.60;99.90
16158;DHT22;8184;60.256;18.694;2022-09-03T09:47:04;14.30;99.90
16158;DHT22;8184;60.256;18.694;2022-09-03T09:49:35;12.50;99.90
16158;DHT22;8184;60.256;18.694;2022-09-03T09:52:05;12.80;99.90
16158;DHT22;8184;60.256;18.694;2022-09-03T09:54:34;12.70;99.90
16158;DHT22;8184;60.256;18.694;2022-09-03T09:57:05;12.60;99.90
16158;DHT22;8184;60.256;18.694;2022-09-03T09:59:33;12.80;99.90
16158;DHT22;8184;60.256;18.694;2022-09-03T10:02:08;12.90;99.90
16158;DHT22;8184;60.256;18.694;2022-09-03T10:04:47;12.50;99.90
16158;DHT22;8184;60.256;18.694;2022-09-03T10:07:23;12.80;99.90
16158;DHT22;8184;60.256;18.694;2022-09-03T10:09:59;12.60;99.90
16158;DHT22;8184;60.256;18.694;2022-09-03T10:12:31;15.50;99.90
16158;DHT22;8184;60.256;18.694;2022-09-03T10:15:08;12.50;99.90
16158;DHT22;8184;60.256;18.694;2022-09-03T10:17:41;11.00;99.90
16158;DHT22;8184;60.256;18.694;2022-09-03T10:20:11;12.30;99.90
16158;DHT22;8184;60.256;18.694;2022-09-03T10:22:58;12.40;99.90
16158;DHT22;8184;60.256;18.694;2022-09-03T10:25:29;12.70;99.90
16158;DHT22;8184;60.256;18.694;2022-09-03T10:28:02;12.60;99.90
16158;DHT22;8184;60.256;18.694;2022-09-03T10:30:31;12.00;99.90
16158;DHT22;8184;60.256;18.694;2022-09-03T10:33:07;12.50;99.90
16158;DHT22;8184;60.256;18.694;2022-09-03T10:35:39;13.00;99.90
16158;DHT22;8184;60.256;18.694;2022-09-03T10:38:14;13.20;99.90
16158;DHT22;8184;60.256;18.694;2022-09-03T10:40:47;13.50;99.90
16158;DHT22;8184;60.256;18.694;2022-09-03T10:43:24;13.40;99.90
16158;DHT22;8184;60.256;18.694;2022-09-03T10:45:59;13.40;99.90
16158;DHT22;8184;60.256;18.694;2022-09-03T10:48:36;13.10;99.90
16158;DHT22;8184;60.256;18.694;2022-09-03T10:51:10;13.40;99.90
16158;DHT22;8184;60.256;18.694;2022-09-03T10:53:48;12.90;99.90
16158;DHT22;8184;60.256;18.694;2022-09-03T10:56:27;14.40;99.90
16158;DHT22;8184;60.256;18.694;2022-09-03T10:59:03;13.20;99.90
16158;DHT22;8184;60.256;18.694;2022-09-03T11:01:36;13.10;99.90
16158;DHT22;8184;60.256;18.694;2022-09-03T11:04:15;13.40;99.90
16158;DHT22;8184;60.256;18.694;2022-09-03T11:06:48;13.60;99.90
16158;DHT22;8184;60.256;18.694;2022-09-03T11:09:18;13.80;99.90
16158;DHT22;8184;60.256;18.694;2022-09-03T11:11:53;14.00;99.90
16158;DHT22;8184;60.256;18.694;2022-09-03T11:14:29;14.00;99.90
16158;DHT22;8184;60.256;18.694;2022-09-03T11:17:02;14.00;99.90
16158;DHT22;8184;60.256;18.694;2022-09-03T11:19:33;14.10;99.90
16158;DHT22;8184;60.256;18.694;2022-09-03T11:22:04;13.60;99.90
16158;DHT22;8184;60.256;18.694;2022-09-03T11:24:36;14.40;99.90
16158;DHT22;8184;60.256;18.694;2022-09-03T11:27:15;14.20;99.90
16158;DHT22;8184;60.256;18.694;2022-09-03T11:29:49;14.60;99.90
16158;DHT22;8184;60.256;18.694;2022-09-03T11:32:19;14.10;99.90
16158;DHT22;8184;60.256;18.694;2022-09-03T11:34:50;14.00;99.90
16158;DHT22;8184;60.256;18.694;2022-09-03T11:37:21;14.20;99.90
16158;DHT22;8184;60.256;18.694;2022-09-03T11:39:56;14.10;99.90
16158;DHT22;8184;60.256;18.694;2022-09-03T11:42:29;15.40;99.90
16158;DHT22;8184;60.256;18.694;2022-09-03T11:45:10;14.40;99.90
16158;DHT22;8184;60.256;18.694;2022-09-03T11:47:41;14.40;99.90
16158;DHT22;8184;60.256;18.694;2022-09-03T11:50:17;14.90;99.90
16158;DHT22;8184;60.256;18.694;2022-09-03T11:52:46;14.50;99.90
16158;DHT22;8184;60.256;18.694;2022-09-03T11:55:25;14.20;99.90
16158;DHT22;8184;60.256;18.694;2022-09-03T11:58:10;14.60;99.90
16158;DHT22;8184;60.256;18.694;2022-09-03T12:00:43;14.10;99.90
16158;DHT22;8184;60.256;18.694;2022-09-03T12:03:12;15.10;99.90
16158;DHT22;8184;60.256;18.694;2022-09-03T12:05:44;15.30;99.90
16158;DHT22;8184;60.256;18.694;2022-09-03T12:08:31;15.30;99.90
16158;DHT22;8184;60.256;18.694;2022-09-03T12:11:08;15.30;99.90
16158;DHT22;8184;60.256;18.694;2022-09-03T12:13:45;15.20;99.90
16158;DHT22;8184;60.256;18.694;2022-09-03T12:16:28;15.00;99.90
16158;DHT22;8184;60.256;18.694;2022-09-03T12:19:00;15.30;99.90
16158;DHT22;8184;60.256;18.694;2022-09-03T12:21:35;15.20;99.90
16158;DHT22;8184;60.256;18.694;2022-09-03T12:24:06;15.00;99.90
16158;DHT22;8184;60.256;18.694;2022-09-03T12:26:38;15.00;99.90
16158;DHT22;8184;60.256;18.694;2022-09-03T12:29:19;14.90;99.90
16158;DHT22;8184;60.256;18.694;2022-09-03T12:32:06;14.90;99.90
16158;DHT22;8184;60.256;18.694;2022-09-03T12:34:35;15.00;99.90
16158;DHT22;8184;60.256;18.694;2022-09-03T12:37:15;14.40;99.90
16158;DHT22;8184;60.256;18.694;2022-09-03T12:40:21;14.40;99.90
16158;DHT22;8184;60.256;18.694;2022-09-03T12:42:52;14.70;99.90
16158;DHT22;8184;60.256;18.694;2022-09-03T12:45:41;14.90;99.90
16158;DHT22;8184;60.256;18.694;2022-09-03T12:48:35;15.10;99.90
16158;DHT22;8184;60.256;18.694;2022-09-03T12:51:09;15.10;99.90
16158;DHT22;8184;60.256;18.694;2022-09-03T12:53:57;15.10;99.90
16158;DHT22;8184;60.256;18.694;2022-09-03T12:56:27;15.10;99.90
16158;DHT22;8184;60.256;18.694;2022-09-03T12:59:00;15.00;99.90
16158;DHT22;8184;60.256;18.694;2022-09-03T13:01:30;15.10;99.90
16158;DHT22;8184;60.256;18.694;2022-09-03T13:04:03;15.10;99.90
16158;DHT22;8184;60.256;18.694;2022-09-03T13:06:43;15.00;99.90
16158;DHT22;8184;60.256;18.694;2022-09-03T13:09:17;14.90;99.90
16158;DHT22;8184;60.256;18.694;2022-09-03T13:11:46;14.70;99.90
16158;DHT22;8184;60.256;18.694;2022-09-03T13:14:17;14.90;99.90
16158;DHT22;8184;60.256;18.694;2022-09-03T13:16:51;15.10;99.90
16158;DHT22;8184;60.256;18.694;2022-09-03T13:19:28;15.00;99.90
16158;DHT22;8184;60.256;18.694;2022-09-03T13:22:01;14.30;99.90
16158;DHT22;8184;60.256;18.694;2022-09-03T13:24:39;14.00;99.90
16158;DHT22;8184;60.256;18.694;2022-09-03T13:27:16;14.30;99.90
16158;DHT22;8184;60.256;18.694;2022-09-03T13:29:52;14.80;99.90
16158;DHT22;8184;60.256;18.694;2022-09-03T13:32:28;14.40;99.90
16158;DHT22;8184;60.256;18.694;2022-09-03T13:35:03;14.20;99.90
16158;DHT22;8184;60.256;18.694;2022-09-03T13:37:34;14.60;99.90
16158;DHT22;8184;60.256;18.694;2022-09-03T13:40:08;14.90;99.90
16158;DHT22;8184;60.256;18.694;2022-09-03T13:42:43;15.10;99.90
16158;DHT22;8184;60.256;18.694;2022-09-03T13:45:21;15.20;99.90
16158;DHT22;8184;60.256;18.694;2022-09-03T13:47:51;15.20;99.90
16158;DHT22;8184;60.256;18.694;2022-09-03T13:50:42;15.20;99.90
16158;DHT22;8184;60.256;18.694;2022-09-03T13:53:13;15.30;99.90
16158;DHT22;8184;60.256;18.694;2022-09-03T13:55:52;15.50;99.90
16158;DHT22;8184;60.256;18.694;2022-09-03T13:58:23;15.50;99.90
16158;DHT22;8184;60.256;18.694;2022-09-03T14:01:01;15.50;99.90
16158;DHT22;8184;60.256;18.694;2022-09-03T14:03:32;15.60;99.90
16158;DHT22;8184;60.256;18.694;2022-09-03T14:06:06;15.10;99.90
16158;DHT22;8184;60.256;18.694;2022-09-03T14:08:39;15.20;99.90
16158;DHT22;8184;60.256;18.694;2022-09-03T14:11:18;15.30;99.90
16158;DHT22;8184;60.256;18.694;2022-09-03T14:13:53;15.30;99.90
16158;DHT22;8184;60.256;18.694;2022-09-03T14:16:27;15.40;99.90
16158;DHT22;8184;60.256;18.694;2022-09-03T14:18:57;15.30;99.90
16158;DHT22;8184;60.256;18.694;2022-09-03T14:21:28;15.40;99.90
16158;DHT22;8184;60.256;18.694;2022-09-03T14:24:00;15.40;99.90
16158;DHT22;8184;60.256;18.694;2022-09-03T14:26:32;15.30;99.90
16158;DHT22;8184;60.256;18.694;2022-09-03T14:29:07;15.50;99.90
16158;DHT22;8184;60.256;18.694;2022-09-03T14:31:48;15.60;99.90
16158;DHT22;8184;60.256;18.694;2022-09-03T14:34:22;15.30;99.90
16158;DHT22;8184;60.256;18.694;2022-09-03T14:37:00;15.50;99.90
16158;DHT22;8184;60.256;18.694;2022-09-03T14:39:33;15.40;99.90
16158;DHT22;8184;60.256;18.694;2022-09-03T14:42:17;15.10;99.90
16158;DHT22;8184;60.256;18.694;2022-09-03T14:47:42;15.10;99.90
16158;DHT22;8184;60.256;18.694;2022-09-03T14:50:18;15.30;99.90
16158;DHT22;8184;60.256;18.694;2022-09-03T14:52:59;15.10;99.90
16158;DHT22;8184;60.256;18.694;2022-09-03T14:55:37;15.10;99.90
16158;DHT22;8184;60.256;18.694;2022-09-03T14:58:16;14.70;99.90
16158;DHT22;8184;60.256;18.694;2022-09-03T15:00:48;15.10;99.90
16158;DHT22;8184;60.256;18.694;2022-09-03T15:06:10;14.50;99.90
16158;DHT22;8184;60.256;18.694;2022-09-03T15:08:57;14.90;99.90
16158;DHT22;8184;60.256;18.694;2022-09-03T15:11:32;14.60;99.90
16158;DHT22;8184;60.256;18.694;2022-09-03T15:14:03;14.50;99.90
16158;DHT22;8184;60.256;18.694;2022-09-03T15:16:38;14.60;99.90
16158;DHT22;8184;60.256;18.694;2022-09-03T15:19:15;14.60;99.90
16158;DHT22;8184;60.256;18.694;2022-09-03T15:21:50;14.70;99.90
16158;DHT22;8184;60.256;18.694;2022-09-03T15:24:23;14.90;99.90
16158;DHT22;8184;60.256;18.694;2022-09-03T15:26:55;15.00;99.90
16158;DHT22;8184;60.256;18.694;2022-09-03T15:29:35;15.00;99.90
16158;DHT22;8184;60.256;18.694;2022-09-03T15:32:06;14.70;99.90
16158;DHT22;8184;60.256;18.694;2022-09-03T15:34:42;14.80;99.90
16158;DHT22;8184;60.256;18.694;2022-09-03T15:37:16;14.60;99.90
16158;DHT22;8184;60.256;18.694;2022-09-03T15:39:46;14.40;99.90
16158;DHT22;8184;60.256;18.694;2022-09-03T15:42:27;14.60;99.90
16158;DHT22;8184;60.256;18.694;2022-09-03T15:45:03;14.20;99.90
16158;DHT22;8184;60.256;18.694;2022-09-03T15:47:37;13.40;99.90
16158;DHT22;8184;60.256;18.694;2022-09-03T15:50:23;14.30;99.90
16158;DHT22;8184;60.256;18.694;2022-09-03T15:52:54;14.40;99.90
16158;DHT22;8184;60.256;18.694;2022-09-03T15:55:25;14.50;99.90
16158;DHT22;8184;60.256;18.694;2022-09-03T15:58:00;10.60;99.90
16158;DHT22;8184;60.256;18.694;2022-09-03T16:00:52;13.80;99.90
16158;DHT22;8184;60.256;18.694;2022-09-03T16:03:36;14.20;99.90
16158;DHT22;8184;60.256;18.694;2022-09-03T16:06:17;14.00;99.90
16158;DHT22;8184;60.256;18.694;2022-09-03T16:08:48;13.80;99.90
16158;DHT22;8184;60.256;18.694;2022-09-03T16:11:20;13.60;99.90
16158;DHT22;8184;60.256;18.694;2022-09-03T16:13:58;14.00;99.90
16158;DHT22;8184;60.256;18.694;2022-09-03T16:16:29;13.90;99.90
16158;DHT22;8184;60.256;18.694;2022-09-03T16:19:00;13.90;99.90
16158;DHT22;8184;60.256;18.694;2022-09-03T16:21:31;13.70;99.90
16158;DHT22;8184;60.256;18.694;2022-09-03T16:24:04;13.90;99.90